createdAt,value
2023-04-19T00:02:13.504Z,8.52
2023-04-19T00:04:40.576Z,14.02
2023-04-19T00:07:07.719Z,6.85
2023-04-19T00:09:34.680Z,7.38
2023-04-19T00:12:02.254Z,7.15
2023-04-19T00:14:29.427Z,8.13
2023-04-19T00:16:56.439Z,8.30
2023-04-19T00:19:23.494Z,9.32
2023-04-19T00:21:50.521Z,8.40
2023-04-19T00:24:18.187Z,10.40
2023-04-19T00:26:45.922Z,8.07
2023-04-19T00:29:12.840Z,7.43
2023-04-19T00:31:40.110Z,6.20
2023-04-19T00:34:07.322Z,11.45
2023-04-19T00:36:34.356Z,7.20
2023-04-19T00:39:01.303Z,8.82
2023-04-19T00:41:28.285Z,9.13
2023-04-19T00:43:55.439Z,8.05
2023-04-19T00:46:23.504Z,6.70
2023-04-19T00:48:51.133Z,6.22
2023-04-19T00:51:18.653Z,5.72
2023-04-19T00:53:46.423Z,6.60
2023-04-19T00:56:14.913Z,6.70
2023-04-19T00:58:41.864Z,6.53
2023-04-19T01:01:09.697Z,5.30
2023-04-19T01:03:37.125Z,7.60
2023-04-19T01:06:04.441Z,5.63
2023-04-19T01:08:31.436Z,4.65
2023-04-19T01:10:58.396Z,7.40
2023-04-19T01:13:25.409Z,5.13
2023-04-19T01:15:52.455Z,6.20
2023-04-19T01:18:21.873Z,4.80
2023-04-19T01:20:48.790Z,7.15
2023-04-19T01:23:15.811Z,6.05
2023-04-19T01:25:43.030Z,5.38
2023-04-19T01:28:09.996Z,6.80
2023-04-19T01:30:37.226Z,9.00
2023-04-19T01:33:04.169Z,4.70
2023-04-19T01:35:31.146Z,4.40
2023-04-19T01:37:58.179Z,15.18
2023-04-19T01:40:26.219Z,6.57
2023-04-19T01:42:53.451Z,5.07
2023-04-19T01:45:20.595Z,6.60
2023-04-19T01:47:51.775Z,5.28
2023-04-19T01:50:18.894Z,6.60
2023-04-19T01:52:45.821Z,5.70
2023-04-19T01:55:12.824Z,6.07
2023-04-19T01:57:39.747Z,7.30
2023-04-19T02:00:08.868Z,5.80
2023-04-19T02:02:42.149Z,6.65
2023-04-19T02:05:10.662Z,5.60
2023-04-19T02:07:37.865Z,5.40
2023-04-19T02:10:06.325Z,6.22
2023-04-19T02:12:34.674Z,5.20
2023-04-19T02:15:03.356Z,6.18
2023-04-19T02:17:30.838Z,6.57
2023-04-19T02:19:59.675Z,5.15
2023-04-19T02:22:27.358Z,4.80
2023-04-19T02:24:54.353Z,5.88
2023-04-19T02:27:27.434Z,8.07
2023-04-19T02:29:54.780Z,5.50
2023-04-19T02:32:21.956Z,5.28
2023-04-19T02:34:48.976Z,7.22
2023-04-19T02:37:15.888Z,4.85
2023-04-19T02:39:42.881Z,9.13
2023-04-19T02:42:09.808Z,5.93
2023-04-19T02:44:36.760Z,6.00
2023-04-19T02:47:03.776Z,6.40
2023-04-19T02:49:36.979Z,5.20
2023-04-19T02:54:33.752Z,5.82
2023-04-19T02:57:01.189Z,4.78
2023-04-19T02:59:28.283Z,5.03
2023-04-19T03:01:58.150Z,7.00
2023-04-19T03:04:25.856Z,4.95
2023-04-19T03:06:53.198Z,7.20
2023-04-19T03:09:20.798Z,4.18
2023-04-19T03:11:47.775Z,10.57
2023-04-19T03:14:16.425Z,4.63
2023-04-19T03:16:43.617Z,5.72
2023-04-19T03:19:10.793Z,12.15
2023-04-19T03:21:45.128Z,5.90
2023-04-19T03:24:13.257Z,4.57
2023-04-19T03:26:45.280Z,5.90
2023-04-19T03:29:14.441Z,7.45
2023-04-19T03:32:01.632Z,13.65
2023-04-19T03:34:30.105Z,3.08
2023-04-19T03:36:57.051Z,5.35
2023-04-19T03:39:24.995Z,5.15
2023-04-19T03:41:57.727Z,5.43
2023-04-19T03:44:38.090Z,6.50
2023-04-19T03:47:07.576Z,5.80
2023-04-19T03:49:41.368Z,11.05
2023-04-19T03:52:08.377Z,4.47
2023-04-19T03:54:35.362Z,6.97
2023-04-19T03:57:04.394Z,4.30
2023-04-19T03:59:31.893Z,5.65
2023-04-19T04:01:59.879Z,5.25
2023-04-19T04:04:27.077Z,7.03
2023-04-19T04:06:55.864Z,4.68
2023-04-19T04:09:22.915Z,3.83
2023-04-19T04:11:50.483Z,4.10
2023-04-19T04:14:17.552Z,5.60
2023-04-19T04:16:46.476Z,5.88
2023-04-19T04:19:17.153Z,6.15
2023-04-19T04:21:45.116Z,4.30
2023-04-19T04:24:13.417Z,5.15
2023-04-19T04:26:52.068Z,5.93
2023-04-19T04:29:29.104Z,5.47
2023-04-19T04:31:59.043Z,6.68
2023-04-19T04:34:33.084Z,8.10
2023-04-19T04:37:08.949Z,5.22
2023-04-19T04:39:39.232Z,4.28
2023-04-19T04:42:10.473Z,4.93
2023-04-19T04:44:38.975Z,5.55
2023-04-19T04:47:08.517Z,9.15
2023-04-19T04:49:42.034Z,5.55
2023-04-19T04:52:09.534Z,8.75
2023-04-19T04:54:44.816Z,4.97
2023-04-19T04:57:21.962Z,7.43
2023-04-19T04:59:48.987Z,8.80
2023-04-19T05:02:18.749Z,7.28
2023-04-19T05:04:45.873Z,6.40
2023-04-19T05:07:13.225Z,5.07
2023-04-19T05:09:40.565Z,5.30
2023-04-19T05:12:07.715Z,7.65
2023-04-19T05:14:35.512Z,11.05
2023-04-19T05:17:04.730Z,12.63
2023-04-19T05:19:32.948Z,8.27
2023-04-19T05:22:05.770Z,22.30
2023-04-19T05:24:32.919Z,9.52
2023-04-19T05:27:01.824Z,6.65
2023-04-19T05:29:28.781Z,27.80
2023-04-19T05:31:57.952Z,27.00
2023-04-19T05:34:31.488Z,12.85
2023-04-19T05:37:00.513Z,18.90
2023-04-19T05:39:27.512Z,12.80
2023-04-19T05:41:54.521Z,13.40
2023-04-19T05:44:21.637Z,15.10
2023-04-19T05:46:48.773Z,17.85
2023-04-19T05:49:24.955Z,12.10
2023-04-19T06:24:07.980Z,12.80
2023-04-19T06:26:35.141Z,15.10
2023-04-19T06:29:02.061Z,14.85
2023-04-19T06:31:29.135Z,11.00
2023-04-19T06:33:56.175Z,11.95
2023-04-19T06:36:23.137Z,14.77
2023-04-19T06:38:50.393Z,14.73
2023-04-19T16:57:49.448Z,20.55
2023-04-19T17:00:16.849Z,19.45
2023-04-19T17:02:43.900Z,19.48
2023-04-19T17:05:12.544Z,19.38
2023-04-19T17:07:39.782Z,21.20
2023-04-19T17:10:07.321Z,19.35
2023-04-19T17:12:34.350Z,19.58
2023-04-19T17:15:02.128Z,18.77
2023-04-19T17:17:29.093Z,17.98
2023-04-19T17:19:56.920Z,18.63
2023-04-19T17:22:24.025Z,19.25
2023-04-19T17:24:51.006Z,18.38
2023-04-19T17:27:17.918Z,20.80
2023-04-19T17:29:49.428Z,21.20
2023-04-19T17:32:17.215Z,21.05
2023-04-19T17:34:44.150Z,21.17
2023-04-19T17:37:11.055Z,19.98
2023-04-19T17:39:37.992Z,16.33
2023-04-19T17:42:04.941Z,17.67
2023-04-19T17:44:31.839Z,16.30
2023-04-19T17:46:58.795Z,21.13
2023-04-19T17:49:27.085Z,15.75
2023-04-19T17:51:56.231Z,20.63
2023-04-19T17:54:23.316Z,18.42
2023-04-19T17:56:52.499Z,19.30
2023-04-19T17:59:19.596Z,20.90
2023-04-19T18:01:46.687Z,20.65
2023-04-19T18:04:17.971Z,21.70
2023-04-19T18:06:46.389Z,22.95
2023-04-19T18:09:14.788Z,19.42
2023-04-19T18:11:42.053Z,19.95
2023-04-19T18:14:09.155Z,23.92
2023-04-19T18:16:36.271Z,23.75
2023-04-19T18:19:03.324Z,26.77
2023-04-19T18:21:30.406Z,21.40
2023-04-19T18:23:57.316Z,25.80
2023-04-19T18:26:24.414Z,25.73
2023-04-19T18:28:51.388Z,28.20
2023-04-19T18:31:18.361Z,25.17
2023-04-19T18:33:45.334Z,25.60
2023-04-19T18:36:12.407Z,26.67
2023-04-19T18:38:39.400Z,33.15
2023-04-19T18:41:06.529Z,20.77
2023-04-19T18:43:33.678Z,25.60
2023-04-19T18:46:01.359Z,29.90
2023-04-19T18:48:29.884Z,24.45
2023-04-19T18:50:57.438Z,30.80
2023-04-19T18:53:28.592Z,32.67
2023-04-19T18:55:59.249Z,31.77
2023-04-19T18:58:27.234Z,29.30
2023-04-19T19:00:54.946Z,33.60
2023-04-19T19:05:58.490Z,25.58
2023-04-19T19:08:26.157Z,26.00
2023-04-19T19:13:23.617Z,25.70
2023-04-19T19:15:51.019Z,22.77
2023-04-19T19:18:18.548Z,22.95
2023-04-19T19:20:46.328Z,25.80
2023-04-19T19:23:13.714Z,22.95
2023-04-19T19:25:42.330Z,27.65
2023-04-19T19:28:11.321Z,25.60
2023-04-19T19:30:43.163Z,25.27
2023-04-19T19:33:11.304Z,23.75
2023-04-19T19:35:39.952Z,24.13
2023-04-19T19:38:07.129Z,18.35
2023-04-19T19:40:34.744Z,22.23
2023-04-19T19:43:02.108Z,22.83
2023-04-19T19:45:30.469Z,20.08
2023-04-19T19:47:59.241Z,18.52
2023-04-19T19:52:58.625Z,20.17
2023-04-19T19:55:25.912Z,19.35
2023-04-19T20:00:42.752Z,20.80
2023-04-19T20:03:11.512Z,22.35
2023-04-19T20:05:39.756Z,21.17
2023-04-19T20:08:12.675Z,20.75
2023-04-19T20:10:42.405Z,18.98
2023-04-19T20:13:09.764Z,25.42
2023-04-19T20:15:37.826Z,19.52
2023-04-19T20:18:05.512Z,19.50
2023-04-19T20:20:33.118Z,19.42
2023-04-19T20:23:00.405Z,17.35
2023-04-19T20:25:27.483Z,14.43
2023-04-19T20:27:55.083Z,16.42
2023-04-19T20:30:22.066Z,21.83
2023-04-19T20:32:50.426Z,20.00
2023-04-19T20:35:18.092Z,18.02
2023-04-19T20:37:46.902Z,15.52
2023-04-19T20:40:16.084Z,20.17
2023-04-19T20:42:44.211Z,20.40
2023-04-19T20:45:11.519Z,15.93
2023-04-19T20:47:38.895Z,18.50
2023-04-19T20:50:07.164Z,17.67
2023-04-19T20:52:34.774Z,20.83
2023-04-19T20:55:01.737Z,17.17
2023-04-19T20:57:28.723Z,17.45
2023-04-19T20:59:55.646Z,16.13
2023-04-19T21:02:22.865Z,22.77
2023-04-19T21:04:49.946Z,23.73
2023-04-19T21:07:17.081Z,14.93
2023-04-19T21:09:44.011Z,23.38
2023-04-19T21:12:10.958Z,20.05
2023-04-19T21:14:37.974Z,20.75
2023-04-19T21:17:04.962Z,16.50
2023-04-19T21:19:32.033Z,17.10
2023-04-19T21:21:59.330Z,22.38
2023-04-19T21:24:26.370Z,16.13
2023-04-19T21:26:53.339Z,13.60
2023-04-19T21:29:21.072Z,16.42
2023-04-19T21:31:48.113Z,17.83
2023-04-19T21:34:15.409Z,17.13
2023-04-19T21:36:42.468Z,17.33
2023-04-19T21:39:10.344Z,16.65
2023-04-19T21:41:38.262Z,16.48
2023-04-19T21:44:05.353Z,13.13
2023-04-19T21:46:33.403Z,15.05
2023-04-19T21:49:00.428Z,16.48
2023-04-19T21:51:27.612Z,18.17
2023-04-19T21:53:54.585Z,19.83
2023-04-19T21:56:21.506Z,15.88
2023-04-19T21:58:48.542Z,15.85
2023-04-19T22:01:15.546Z,20.23
2023-04-19T22:03:42.770Z,14.10
2023-04-19T22:06:10.260Z,19.13
2023-04-19T22:08:37.235Z,20.92
2023-04-19T22:11:04.415Z,15.25
2023-04-19T22:13:33.406Z,18.08
2023-04-19T22:18:29.188Z,14.50
2023-04-19T22:20:56.136Z,16.70
2023-04-19T22:23:23.157Z,22.23
2023-04-19T22:25:50.086Z,17.27
2023-04-19T22:28:17.054Z,18.02
2023-04-19T22:30:44.024Z,18.77
2023-04-19T22:33:11.714Z,16.90
2023-04-19T22:35:38.664Z,21.75
2023-04-19T22:38:05.614Z,16.63
2023-04-19T22:40:32.560Z,18.58
2023-04-19T22:42:59.465Z,18.55
2023-04-19T22:45:26.478Z,13.73
2023-04-19T22:47:53.924Z,17.10
2023-04-19T22:50:23.866Z,14.50
2023-04-19T22:52:51.326Z,18.23
2023-04-19T22:55:18.256Z,16.40
2023-04-19T22:57:45.170Z,15.68
2023-04-19T23:00:12.644Z,16.60
2023-04-19T23:02:39.734Z,13.98
2023-04-19T23:05:07.130Z,15.70
2023-04-19T23:07:34.446Z,17.77
2023-04-19T23:10:03.105Z,15.43
2023-04-19T23:12:31.303Z,15.30
2023-04-19T23:14:58.409Z,13.73
2023-04-19T23:17:25.677Z,13.65
2023-04-19T23:19:53.066Z,14.18
2023-04-19T23:22:20.101Z,15.00
2023-04-19T23:24:47.018Z,13.80
2023-04-19T23:27:14.181Z,19.48
2023-04-19T23:29:41.131Z,20.95
2023-04-19T23:32:08.091Z,14.35
2023-04-19T23:34:35.150Z,14.13
2023-04-19T23:37:02.170Z,12.85
2023-04-19T23:39:29.118Z,14.23
2023-04-19T23:41:56.150Z,17.38
2023-04-19T23:44:23.086Z,12.77
2023-04-19T23:46:50.069Z,14.65
2023-04-19T23:49:17.200Z,16.10
2023-04-19T23:51:44.662Z,19.90
2023-04-19T23:54:11.829Z,13.20
2023-04-19T23:56:38.733Z,17.80
2023-04-19T23:59:05.750Z,17.52
